createdAt,value
2023-02-03T00:01:02.549Z,75.77
2023-02-03T00:03:05.000Z,75.78
2023-02-03T00:05:07.621Z,75.22
2023-02-03T00:07:12.517Z,75.91
2023-02-03T00:09:15.560Z,75.49
2023-02-03T00:11:17.542Z,75.74
2023-02-03T00:13:19.508Z,76.03
2023-02-03T00:15:23.405Z,75.23
2023-02-03T00:17:25.417Z,75.50
2023-02-03T00:19:27.231Z,75.20
2023-02-03T00:21:29.211Z,74.74
2023-02-03T00:23:32.332Z,74.67
2023-02-03T00:25:34.669Z,75.04
2023-02-03T00:27:36.733Z,74.65
2023-02-03T00:29:38.575Z,75.02
2023-02-03T00:31:40.529Z,75.29
2023-02-03T00:33:42.460Z,75.79
2023-02-03T00:35:44.344Z,75.77
2023-02-03T00:37:52.629Z,76.12
2023-02-03T00:39:54.704Z,75.97
2023-02-03T00:41:58.547Z,75.97
2023-02-03T00:44:00.449Z,75.92
2023-02-03T00:46:02.376Z,75.89
2023-02-03T00:48:05.070Z,75.78
2023-02-03T00:50:08.143Z,76.11
2023-02-03T00:52:10.018Z,76.30
2023-02-03T00:54:12.248Z,75.82
2023-02-03T00:56:14.335Z,76.14
2023-02-03T00:58:17.202Z,75.93
2023-02-03T01:00:20.059Z,76.31
2023-02-03T01:02:22.195Z,76.78
2023-02-03T01:04:24.137Z,75.98
2023-02-03T01:06:26.568Z,76.31
2023-02-03T01:08:28.378Z,76.60
2023-02-03T01:10:30.628Z,76.04
2023-02-03T01:12:33.121Z,75.21
2023-02-03T01:14:35.390Z,76.00
2023-02-03T01:16:38.465Z,76.12
2023-02-03T01:18:42.015Z,75.68
2023-02-03T01:20:43.944Z,76.09
2023-02-03T01:22:45.859Z,75.89
2023-02-03T01:24:47.723Z,75.60
2023-02-03T01:26:49.679Z,75.37
2023-02-03T01:28:53.121Z,76.05
2023-02-03T01:30:55.072Z,75.22
2023-02-03T01:32:57.308Z,75.56
2023-02-03T01:34:59.231Z,74.32
2023-02-03T01:37:01.028Z,74.45
2023-02-03T01:39:09.034Z,74.37
2023-02-03T01:41:15.255Z,74.24
2023-02-03T01:43:39.068Z,73.31
2023-02-03T01:45:41.121Z,73.91
2023-02-03T01:47:48.984Z,73.46
2023-02-03T01:50:15.894Z,73.16
2023-02-03T01:52:18.061Z,72.91
2023-02-03T01:54:27.049Z,74.01
2023-02-03T01:56:32.835Z,74.20
2023-02-03T01:58:39.970Z,74.61
2023-02-03T02:00:43.687Z,74.07
2023-02-03T02:02:49.216Z,74.62
2023-02-03T02:04:59.575Z,74.01
2023-02-03T02:07:02.301Z,73.84
2023-02-03T02:09:04.902Z,74.76
2023-02-03T02:11:07.673Z,74.14
2023-02-03T02:13:09.594Z,73.93
2023-02-03T02:15:11.615Z,74.55
2023-02-03T02:17:33.825Z,74.24
2023-02-03T02:19:58.833Z,74.26
2023-02-03T02:22:18.714Z,74.37
2023-02-03T02:24:51.433Z,74.64
2023-02-03T02:27:06.207Z,74.52
2023-02-03T02:29:41.540Z,74.57
2023-02-03T02:32:06.385Z,74.87
2023-02-03T02:34:35.241Z,74.50
2023-02-03T02:36:56.814Z,74.60
2023-02-03T02:39:10.533Z,74.89
2023-02-03T02:41:44.956Z,74.82
2023-02-03T02:44:13.194Z,75.43
2023-02-03T02:46:24.422Z,75.37
2023-02-03T02:48:48.316Z,74.82
2023-02-03T02:50:54.026Z,75.11
2023-02-03T02:52:57.482Z,75.67
2023-02-03T02:55:08.378Z,75.43
2023-02-03T02:57:13.742Z,75.54
2023-02-03T02:59:16.619Z,75.29
2023-02-03T03:01:19.384Z,75.91
2023-02-03T03:03:24.218Z,76.12
2023-02-03T03:05:26.946Z,76.98
2023-02-03T03:07:30.432Z,76.37
2023-02-03T03:09:55.431Z,76.57
2023-02-03T03:12:31.887Z,76.62
2023-02-03T03:14:36.649Z,76.75
2023-02-03T03:16:44.495Z,76.82
2023-02-03T03:19:11.841Z,77.08
2023-02-03T03:21:20.231Z,77.15
2023-02-03T03:23:32.397Z,77.34
2023-02-03T03:25:46.519Z,76.28
2023-02-03T03:27:57.302Z,76.61
2023-02-03T03:30:13.369Z,75.98
2023-02-03T03:32:15.943Z,75.85
2023-02-03T03:34:18.683Z,75.73
2023-02-03T03:36:33.369Z,75.85
2023-02-03T03:38:44.431Z,75.89
2023-02-03T03:41:04.365Z,75.37
2023-02-03T03:43:14.938Z,75.72
2023-02-03T03:45:20.143Z,75.21
2023-02-03T03:47:35.253Z,75.35
2023-02-03T03:49:41.193Z,75.85
2023-02-03T03:51:55.525Z,75.37
2023-02-03T03:54:05.131Z,75.57
2023-02-03T03:56:11.348Z,75.30
2023-02-03T03:58:19.872Z,75.75
2023-02-03T04:00:25.703Z,76.03
2023-02-03T04:02:30.434Z,76.26
2023-02-03T04:04:35.569Z,76.43
2023-02-03T04:06:42.639Z,76.44
2023-02-03T04:08:44.599Z,76.86
2023-02-03T04:10:46.653Z,76.59
2023-02-03T04:12:48.495Z,77.61
2023-02-03T04:14:50.469Z,76.89
2023-02-03T04:16:52.392Z,77.25
2023-02-03T04:18:55.272Z,77.39
2023-02-03T04:20:57.127Z,77.16
2023-02-03T04:22:59.858Z,77.53
2023-02-03T04:25:01.813Z,77.44
2023-02-03T04:27:05.488Z,77.58
2023-02-03T04:29:07.536Z,77.37
2023-02-03T04:31:09.471Z,77.76
2023-02-03T04:33:11.407Z,78.25
2023-02-03T04:35:14.851Z,78.41
2023-02-03T04:37:16.757Z,77.99
2023-02-03T04:39:18.734Z,78.58
2023-02-03T04:41:20.662Z,78.40
2023-02-03T04:43:22.596Z,78.63
2023-02-03T04:45:24.532Z,79.04
2023-02-03T04:47:26.366Z,79.08
2023-02-03T04:49:28.241Z,79.47
2023-02-03T04:51:30.392Z,79.35
2023-02-03T04:53:32.810Z,79.67
2023-02-03T04:55:35.631Z,79.42
2023-02-03T04:57:37.507Z,79.09
2023-02-03T04:59:39.452Z,79.44
2023-02-03T05:01:41.300Z,79.29
2023-02-03T05:03:43.319Z,79.17
2023-02-03T05:05:45.296Z,79.28
2023-02-03T05:07:47.392Z,79.48
2023-02-03T05:09:49.296Z,79.60
2023-02-03T05:11:51.304Z,79.63
2023-02-03T05:13:54.633Z,79.64
2023-02-03T05:15:56.450Z,80.20
2023-02-03T05:17:58.420Z,79.77
2023-02-03T05:20:00.253Z,79.88
2023-02-03T05:22:02.191Z,79.45
2023-02-03T05:24:08.138Z,79.78
2023-02-03T05:26:10.380Z,79.40
2023-02-03T05:28:12.479Z,79.07
2023-02-03T05:30:14.521Z,79.96
2023-02-03T05:32:16.441Z,80.39
2023-02-03T05:34:18.308Z,79.78
2023-02-03T05:36:21.483Z,79.76
2023-02-03T05:38:25.673Z,79.58
2023-02-03T05:40:47.065Z,79.82
2023-02-03T05:42:49.590Z,79.42
2023-02-03T05:44:51.548Z,79.81
2023-02-03T05:46:56.896Z,79.87
2023-02-03T05:48:58.800Z,79.34
2023-02-03T05:51:00.697Z,79.53
2023-02-03T05:53:04.892Z,79.89
2023-02-03T05:55:07.103Z,79.70
2023-02-03T05:57:08.929Z,79.80
2023-02-03T05:59:10.978Z,79.26
2023-02-03T06:01:12.814Z,79.65
2023-02-03T06:03:14.744Z,79.38
2023-02-03T06:05:16.726Z,79.56
2023-02-03T06:07:24.317Z,79.28
2023-02-03T06:09:26.224Z,79.79
2023-02-03T06:11:28.647Z,79.71
2023-02-03T06:13:30.526Z,80.03
2023-02-03T06:15:32.488Z,79.57
2023-02-03T06:17:36.203Z,79.94
2023-02-03T06:19:38.334Z,79.95
2023-02-03T06:21:40.256Z,80.13
2023-02-03T06:23:43.112Z,80.30
2023-02-03T06:25:49.751Z,80.57
2023-02-03T06:27:52.107Z,79.98
2023-02-03T06:29:54.096Z,80.08
2023-02-03T06:31:56.104Z,80.10
2023-02-03T06:33:59.663Z,79.97
2023-02-03T06:36:01.626Z,79.82
2023-02-03T06:38:03.453Z,79.64
2023-02-03T06:40:06.451Z,80.18
2023-02-03T06:42:08.484Z,79.62
2023-02-03T06:44:10.416Z,79.72
2023-02-03T06:46:12.773Z,79.25
2023-02-03T06:48:15.046Z,79.80
2023-02-03T06:50:17.257Z,79.56
2023-02-03T06:52:19.454Z,79.71
2023-02-03T06:54:22.796Z,80.03
2023-02-03T06:56:24.943Z,79.16
2023-02-03T06:58:26.806Z,78.73
2023-02-03T07:00:29.021Z,78.50
2023-02-03T07:02:31.286Z,78.48
2023-02-03T07:04:33.328Z,78.80
2023-02-03T07:06:35.364Z,78.54
2023-02-03T07:08:37.281Z,78.07
2023-02-03T07:10:39.131Z,78.46
2023-02-03T07:12:41.069Z,78.03
2023-02-03T07:14:42.935Z,77.92
2023-02-03T07:16:44.898Z,77.94
2023-02-03T07:18:48.239Z,77.42
2023-02-03T07:20:51.796Z,76.68
2023-02-03T07:22:55.459Z,77.08
2023-02-03T07:24:57.362Z,76.79
2023-02-03T07:26:59.292Z,76.84
2023-02-03T07:29:01.264Z,76.88
2023-02-03T07:31:05.027Z,76.52
2023-02-03T07:33:08.153Z,76.22
2023-02-03T07:35:10.099Z,75.89
2023-02-03T07:37:12.032Z,76.30
2023-02-03T07:39:14.032Z,75.43
2023-02-03T07:41:18.252Z,75.72
2023-02-03T07:43:20.816Z,74.82
2023-02-03T07:45:24.996Z,74.42
2023-02-03T07:47:27.876Z,74.78
2023-02-03T07:49:29.854Z,74.02
2023-02-03T07:51:32.163Z,73.73
2023-02-03T07:53:35.576Z,74.41
2023-02-03T07:55:40.944Z,72.82
2023-02-03T07:57:43.802Z,73.76
2023-02-03T07:59:47.106Z,72.04
2023-02-03T08:01:49.169Z,72.19
2023-02-03T08:03:55.131Z,73.86
2023-02-03T08:05:57.225Z,72.10
2023-02-03T08:07:59.682Z,70.36
2023-02-03T08:10:01.817Z,71.36
2023-02-03T08:12:04.061Z,69.47
2023-02-03T08:14:06.000Z,70.80
2023-02-03T08:16:07.968Z,69.67
2023-02-03T08:18:10.115Z,68.47
2023-02-03T08:20:14.905Z,69.08
2023-02-03T08:22:16.902Z,68.58
2023-02-03T08:24:21.172Z,68.60
2023-02-03T08:26:23.263Z,67.29
2023-02-03T08:28:26.338Z,66.67
2023-02-03T08:30:28.489Z,67.33
2023-02-03T08:32:30.759Z,66.82
2023-02-03T08:36:54.674Z,65.16
2023-02-03T08:39:01.317Z,65.95
2023-02-03T08:41:09.148Z,65.45
2023-02-03T08:43:11.523Z,66.00
2023-02-03T08:45:13.542Z,65.13
2023-02-03T08:47:16.850Z,65.15
2023-02-03T08:49:19.801Z,65.47
2023-02-03T08:51:25.015Z,66.60
2023-02-03T08:53:28.346Z,64.37
2023-02-03T08:55:30.408Z,65.44
2023-02-03T08:57:37.222Z,64.32
2023-02-03T08:59:42.944Z,64.37
2023-02-03T09:01:46.189Z,63.87
2023-02-03T09:03:48.299Z,62.97
2023-02-03T09:05:50.289Z,62.51
2023-02-03T09:07:53.489Z,62.38
2023-02-03T09:09:56.218Z,63.10
2023-02-03T09:12:02.633Z,62.28
2023-02-03T09:14:06.067Z,63.52
2023-02-03T09:16:10.250Z,63.88
2023-02-03T09:18:14.280Z,64.05
2023-02-03T09:20:16.469Z,62.46
2023-02-03T09:22:18.471Z,61.79
2023-02-03T09:24:20.694Z,60.81
2023-02-03T09:26:23.581Z,60.79
2023-02-03T09:28:25.973Z,59.78
2023-02-03T09:30:28.322Z,61.33
2023-02-03T09:32:30.601Z,60.43
2023-02-03T09:34:33.564Z,61.10
2023-02-03T09:36:36.159Z,60.55
2023-02-03T09:38:38.789Z,61.36
2023-02-03T09:40:42.838Z,61.10
2023-02-03T09:43:14.063Z,60.10
2023-02-03T09:45:26.581Z,58.46
2023-02-03T09:47:32.853Z,59.38
2023-02-03T09:49:47.827Z,60.30
2023-02-03T09:51:56.337Z,59.56
2023-02-03T09:54:07.455Z,59.71
2023-02-03T09:56:30.999Z,59.04
2023-02-03T09:58:36.291Z,59.16
2023-02-03T10:00:49.138Z,60.33
2023-02-03T10:03:14.338Z,57.13
2023-02-03T10:05:26.705Z,58.45
2023-02-03T10:08:01.956Z,57.69
2023-02-03T10:10:19.272Z,57.59
2023-02-03T10:12:49.738Z,58.27
2023-02-03T10:15:09.439Z,57.32
2023-02-03T10:17:41.912Z,59.05
2023-02-03T10:20:17.851Z,58.72
2023-02-03T10:22:26.160Z,58.52
2023-02-03T10:24:40.862Z,59.33
2023-02-03T10:26:43.054Z,59.45
2023-02-03T10:29:07.217Z,59.11
2023-02-03T10:31:19.758Z,59.13
2023-02-03T10:33:32.602Z,57.97
2023-02-03T10:35:51.055Z,58.88
2023-02-03T10:37:58.349Z,58.56
2023-02-03T10:40:04.477Z,59.08
2023-02-03T10:42:07.502Z,58.95
2023-02-03T10:44:13.605Z,59.83
2023-02-03T10:46:19.476Z,59.94
2023-02-03T10:48:23.286Z,60.49
2023-02-03T10:50:32.044Z,61.25
2023-02-03T10:52:36.254Z,60.45
2023-02-03T10:54:39.224Z,61.38
2023-02-03T10:56:41.513Z,61.67
2023-02-03T10:58:55.843Z,61.94
2023-02-03T11:01:07.171Z,61.08
2023-02-03T11:03:25.501Z,60.82
2023-02-03T11:05:28.673Z,60.73
2023-02-03T11:07:30.897Z,61.50
2023-02-03T11:09:38.880Z,61.70
2023-02-03T11:11:42.170Z,61.53
2023-02-03T11:13:46.107Z,61.04
2023-02-03T11:15:58.768Z,61.00
2023-02-03T11:18:00.903Z,60.88
2023-02-03T11:20:13.913Z,61.58
2023-02-03T11:22:37.391Z,60.91
2023-02-03T11:24:42.063Z,61.48
2023-02-03T11:26:49.479Z,62.03
2023-02-03T11:28:57.405Z,62.29
2023-02-03T11:31:01.803Z,61.77
2023-02-03T11:33:20.011Z,61.21
2023-02-03T11:35:30.130Z,60.42
2023-02-03T11:37:39.207Z,61.14
2023-02-03T11:39:41.683Z,59.74
2023-02-03T11:41:43.894Z,60.03
2023-02-03T11:43:48.705Z,60.62
2023-02-03T11:45:59.842Z,60.26
2023-02-03T11:48:11.118Z,61.37
2023-02-03T11:50:44.149Z,61.10
2023-02-03T11:52:59.019Z,60.85
2023-02-03T11:55:15.099Z,60.69
2023-02-03T11:57:53.124Z,60.04
2023-02-03T12:00:13.423Z,60.77
2023-02-03T12:02:46.331Z,60.48
2023-02-03T12:04:58.195Z,60.24
2023-02-03T12:07:31.539Z,60.83
2023-02-03T12:09:56.831Z,60.89
2023-02-03T12:12:18.402Z,61.16
2023-02-03T12:15:06.581Z,61.57
2023-02-03T12:17:25.475Z,61.61
2023-02-03T12:19:48.539Z,60.88
2023-02-03T12:22:00.964Z,61.22
2023-02-03T12:24:25.784Z,62.18
2023-02-03T12:26:47.429Z,61.07
2023-02-03T12:28:51.403Z,61.41
2023-02-03T12:31:00.709Z,61.84
2023-02-03T12:33:16.546Z,61.51
2023-02-03T12:35:27.060Z,61.67
2023-02-03T12:37:34.636Z,61.95
2023-02-03T12:39:48.342Z,61.57
2023-02-03T12:42:01.045Z,62.09
2023-02-03T12:44:17.870Z,61.95
2023-02-03T12:46:45.374Z,61.93
2023-02-03T12:49:21.544Z,62.81
2023-02-03T12:51:39.566Z,64.13
2023-02-03T12:53:49.207Z,65.83
2023-02-03T12:56:01.288Z,65.89
2023-02-03T12:58:11.976Z,66.69
2023-02-03T13:00:21.976Z,67.20
2023-02-03T13:02:29.921Z,68.57
2023-02-03T13:04:36.335Z,69.94
2023-02-03T13:06:52.979Z,72.46
2023-02-03T13:09:09.162Z,72.63
2023-02-03T13:11:29.212Z,74.45
2023-02-03T13:13:40.200Z,74.54
2023-02-03T13:15:50.802Z,74.28
2023-02-03T13:18:11.632Z,74.95
2023-02-03T13:20:23.980Z,75.92
2023-02-03T13:22:26.262Z,76.44
2023-02-03T13:24:34.168Z,76.54
2023-02-03T13:26:55.573Z,76.40
2023-02-03T13:29:22.685Z,77.83
2023-02-03T13:31:27.854Z,78.17
2023-02-03T13:33:48.958Z,79.45
2023-02-03T13:35:59.893Z,78.99
2023-02-03T13:38:53.170Z,79.61
2023-02-03T13:41:24.853Z,79.44
2023-02-03T13:43:38.722Z,80.34
2023-02-03T13:45:45.455Z,80.27
2023-02-03T13:47:53.416Z,80.27
2023-02-03T13:50:02.970Z,80.40
2023-02-03T13:52:05.282Z,80.26
2023-02-03T13:54:14.826Z,80.91
2023-02-03T13:56:25.648Z,80.60
2023-02-03T13:58:31.296Z,81.09
2023-02-03T14:00:45.246Z,80.89
2023-02-03T14:02:54.799Z,81.62
2023-02-03T14:04:59.938Z,80.85
2023-02-03T14:07:03.901Z,81.16
2023-02-03T14:09:36.103Z,81.16
2023-02-03T14:11:40.624Z,81.82
2023-02-03T14:14:07.443Z,82.07
2023-02-03T14:16:39.629Z,82.09
2023-02-03T14:18:46.660Z,82.20
2023-02-03T14:20:52.920Z,82.13
2023-02-03T14:23:06.545Z,82.08
2023-02-03T14:25:09.763Z,81.86
2023-02-03T14:27:25.288Z,81.98
2023-02-03T14:29:38.009Z,82.21
2023-02-03T14:32:05.398Z,82.17
2023-02-03T14:34:19.224Z,82.08
2023-02-03T14:36:41.836Z,82.18
2023-02-03T14:38:43.994Z,82.18
2023-02-03T14:40:54.995Z,82.08
2023-02-03T14:43:38.071Z,82.53
2023-02-03T14:45:57.828Z,82.37
2023-02-03T14:48:14.660Z,82.61
2023-02-03T14:50:23.515Z,82.69
2023-02-03T14:53:07.175Z,82.57
2023-02-03T14:55:36.071Z,82.16
2023-02-03T14:57:45.616Z,82.55
2023-02-03T15:00:27.740Z,82.79
2023-02-03T15:02:32.708Z,83.24
2023-02-03T15:04:35.340Z,82.43
2023-02-03T15:06:43.300Z,82.68
2023-02-03T15:08:48.764Z,83.03
2023-02-03T15:10:56.665Z,82.80
2023-02-03T15:12:59.206Z,83.08
2023-02-03T15:15:29.356Z,83.08
2023-02-03T15:17:32.497Z,82.97
2023-02-03T15:19:38.605Z,82.77
2023-02-03T15:21:42.647Z,83.53
2023-02-03T15:23:52.097Z,83.33
2023-02-03T15:25:59.274Z,83.20
2023-02-03T15:28:20.762Z,83.29
2023-02-03T15:30:28.485Z,83.44
2023-02-03T15:32:40.937Z,83.74
2023-02-03T15:34:51.406Z,83.53
2023-02-03T15:36:58.001Z,83.07
2023-02-03T15:39:11.824Z,83.22
2023-02-03T15:41:23.287Z,83.25
2023-02-03T15:43:34.140Z,82.98
2023-02-03T15:45:54.776Z,83.27
2023-02-03T15:48:22.188Z,83.36
2023-02-03T15:50:47.864Z,83.16
2023-02-03T15:52:55.661Z,83.02
2023-02-03T15:55:21.623Z,83.39
2023-02-03T15:57:26.137Z,83.26
2023-02-03T15:59:31.220Z,83.46
2023-02-03T16:01:35.811Z,82.84
2023-02-03T16:03:44.867Z,83.07
2023-02-03T16:05:49.876Z,83.67
2023-02-03T16:07:52.689Z,83.50
2023-02-03T16:09:57.214Z,83.72
2023-02-03T16:12:22.354Z,83.02
2023-02-03T16:14:36.764Z,83.23
2023-02-03T16:17:04.937Z,83.63
2023-02-03T16:19:22.648Z,83.58
2023-02-03T16:21:35.123Z,83.65
2023-02-03T16:23:49.871Z,83.49
2023-02-03T16:26:15.746Z,83.51
2023-02-03T16:28:37.237Z,83.26
2023-02-03T16:30:58.198Z,83.27
2023-02-03T16:33:27.708Z,83.41
2023-02-03T16:35:49.450Z,83.70
2023-02-03T16:38:11.659Z,83.19
2023-02-03T16:40:35.557Z,83.64
2023-02-03T16:42:58.685Z,83.42
2023-02-03T16:45:19.282Z,83.15
2023-02-03T16:47:46.266Z,83.38
2023-02-03T16:50:09.955Z,82.93
2023-02-03T16:52:16.443Z,82.86
2023-02-03T16:54:19.736Z,82.77
2023-02-03T16:56:21.827Z,83.27
2023-02-03T16:58:24.389Z,83.49
2023-02-03T17:00:27.613Z,82.85
2023-02-03T17:02:31.101Z,82.52
2023-02-03T17:04:38.413Z,83.20
2023-02-03T17:06:41.710Z,82.96
2023-02-03T17:08:43.872Z,83.31
2023-02-03T17:10:48.725Z,82.75
2023-02-03T17:12:53.345Z,83.05
2023-02-03T17:14:58.598Z,82.93
2023-02-03T17:17:02.170Z,84.50
2023-02-03T17:19:04.869Z,84.29
2023-02-03T17:21:09.891Z,84.21
2023-02-03T17:23:16.896Z,84.83
2023-02-03T17:25:21.803Z,84.94
2023-02-03T17:27:26.591Z,85.23
2023-02-03T17:29:29.680Z,85.07
2023-02-03T17:31:33.027Z,85.23
2023-02-03T17:33:35.411Z,85.56
2023-02-03T17:35:45.888Z,85.10
2023-02-03T17:37:48.185Z,85.49
2023-02-03T17:54:02.415Z,85.80
2023-02-03T17:56:14.081Z,86.35
2023-02-03T17:58:18.693Z,86.15
2023-02-03T18:00:22.900Z,85.73
2023-02-03T18:02:25.219Z,86.17
2023-02-03T18:04:27.753Z,86.49
2023-02-03T18:06:32.045Z,86.23
2023-02-03T18:08:44.021Z,86.44
2023-02-03T18:10:47.578Z,86.60
2023-02-03T18:12:49.708Z,86.12
2023-02-03T18:14:51.964Z,86.47
2023-02-03T18:16:55.865Z,86.74
2023-02-03T18:19:04.347Z,86.15
2023-02-03T18:21:07.057Z,86.31
2023-02-03T18:23:11.298Z,86.31
2023-02-03T18:25:17.126Z,86.68
2023-02-03T18:27:20.031Z,86.41
2023-02-03T18:29:25.059Z,86.85
2023-02-03T18:31:28.132Z,87.20
2023-02-03T18:33:31.190Z,87.50
2023-02-03T18:35:35.077Z,87.39
2023-02-03T18:37:43.264Z,87.60
2023-02-03T18:39:51.603Z,87.62
2023-02-03T18:41:54.894Z,87.75
2023-02-03T18:43:57.757Z,87.91
2023-02-03T18:46:05.864Z,87.80
2023-02-03T18:48:10.105Z,88.38
2023-02-03T18:50:12.802Z,87.90
2023-02-03T18:52:18.536Z,87.74
2023-02-03T18:54:23.786Z,87.15
2023-02-03T18:56:35.656Z,87.10
2023-02-03T18:58:39.846Z,86.96
2023-02-03T19:00:44.374Z,86.84
2023-02-03T19:02:55.036Z,86.31
2023-02-03T19:04:57.898Z,86.16
2023-02-03T19:07:02.912Z,86.31
2023-02-03T19:09:06.210Z,85.82
2023-02-03T19:11:12.518Z,85.89
2023-02-03T19:13:15.520Z,86.10
2023-02-03T19:15:20.134Z,85.83
2023-02-03T19:17:24.384Z,86.11
2023-02-03T19:19:27.960Z,86.38
2023-02-03T19:21:30.459Z,85.87
2023-02-03T19:23:33.693Z,86.01
2023-02-03T19:25:39.132Z,85.89
2023-02-03T19:27:43.373Z,85.64
2023-02-03T19:29:47.353Z,85.23
2023-02-03T19:31:53.422Z,85.76
2023-02-03T19:34:03.312Z,85.21
2023-02-03T19:36:07.554Z,85.14
2023-02-03T19:38:11.864Z,84.90
2023-02-03T19:40:18.293Z,85.29
2023-02-03T19:42:22.103Z,86.06
2023-02-03T19:44:26.122Z,86.06
2023-02-03T19:46:32.762Z,85.95
2023-02-03T19:48:36.343Z,85.34
2023-02-03T19:50:41.565Z,84.96
2023-02-03T19:52:45.139Z,85.32
2023-02-03T19:54:49.264Z,85.25
2023-02-03T19:56:54.185Z,85.37
2023-02-03T19:58:57.192Z,85.30
2023-02-03T20:01:03.463Z,85.54
2023-02-03T20:03:09.704Z,85.47
2023-02-03T20:05:16.143Z,85.52
2023-02-03T20:07:18.965Z,85.23
2023-02-03T20:09:22.171Z,85.45
2023-02-03T20:11:26.108Z,85.31
2023-02-03T20:13:29.501Z,85.39
2023-02-03T20:15:32.656Z,84.86
2023-02-03T20:17:45.687Z,85.16
2023-02-03T20:19:49.971Z,85.70
2023-02-03T20:21:55.233Z,84.65
2023-02-03T20:23:58.322Z,84.94
2023-02-03T20:26:01.277Z,84.51
2023-02-03T20:28:08.057Z,85.30
2023-02-03T20:30:13.098Z,84.58
2023-02-03T20:32:18.642Z,84.60
2023-02-03T20:34:21.474Z,84.75
2023-02-03T20:36:25.082Z,84.52
2023-02-03T20:38:30.252Z,84.88
2023-02-03T20:40:33.424Z,84.55
2023-02-03T20:42:36.371Z,84.41
2023-02-03T20:44:41.581Z,84.99
2023-02-03T20:46:46.458Z,84.46
2023-02-03T20:48:49.093Z,84.69
2023-02-03T20:50:54.328Z,84.43
2023-02-03T20:53:00.272Z,85.00
2023-02-03T20:55:13.236Z,84.04
2023-02-03T20:57:18.282Z,84.29
2023-02-03T20:59:22.359Z,84.91
2023-02-03T21:01:29.811Z,84.65
2023-02-03T21:03:53.301Z,84.72
2023-02-03T21:05:57.441Z,84.52
2023-02-03T21:08:02.849Z,84.47
2023-02-03T21:10:25.207Z,84.48
2023-02-03T21:12:31.014Z,84.36
2023-02-03T21:14:43.241Z,84.86
2023-02-03T21:16:47.887Z,84.14
2023-02-03T21:18:54.911Z,83.75
2023-02-03T21:20:58.351Z,84.17
2023-02-03T21:23:02.381Z,84.36
2023-02-03T21:25:08.262Z,84.56
2023-02-03T21:27:34.596Z,84.38
2023-02-03T21:29:37.228Z,84.66
2023-02-03T21:31:40.778Z,83.64
2023-02-03T21:33:44.072Z,84.05
2023-02-03T21:35:47.657Z,84.55
2023-02-03T21:38:02.085Z,83.89
2023-02-03T21:40:27.067Z,83.86
2023-02-03T21:42:42.808Z,84.56
2023-02-03T21:44:46.436Z,84.01
2023-02-03T21:46:49.090Z,83.97
2023-02-03T21:48:53.713Z,83.53
2023-02-03T21:51:16.907Z,83.40
2023-02-03T21:53:36.083Z,83.62
2023-02-03T21:55:41.141Z,82.90
2023-02-03T21:57:43.713Z,83.19
2023-02-03T21:59:50.289Z,83.06
2023-02-03T22:01:58.644Z,82.92
2023-02-03T22:04:02.602Z,83.23
2023-02-03T22:06:25.805Z,83.36
2023-02-03T22:08:34.255Z,83.18
2023-02-03T22:10:36.361Z,83.26
2023-02-03T22:12:38.464Z,82.34
2023-02-03T22:14:40.611Z,83.11
2023-02-03T22:16:43.784Z,82.70
2023-02-03T22:18:47.604Z,82.67
2023-02-03T22:20:49.654Z,82.59
2023-02-03T22:22:51.692Z,82.45
2023-02-03T22:24:53.821Z,81.84
2023-02-03T22:27:00.305Z,81.19
2023-02-03T22:29:02.811Z,81.98
2023-02-03T22:31:05.411Z,81.20
2023-02-03T22:33:07.905Z,81.21
2023-02-03T22:35:10.028Z,81.68
2023-02-03T22:37:11.969Z,81.45
2023-02-03T22:39:14.046Z,81.47
2023-02-03T22:41:16.022Z,81.73
2023-02-03T22:43:17.927Z,81.39
2023-02-03T22:45:21.794Z,82.33
2023-02-03T22:47:24.714Z,81.88
2023-02-03T22:49:26.593Z,81.92
2023-02-03T22:51:28.515Z,82.38
2023-02-03T22:53:30.519Z,82.09
2023-02-03T22:55:32.828Z,81.89
2023-02-03T22:57:35.232Z,82.52
2023-02-03T22:59:37.179Z,83.14
2023-02-03T23:01:39.071Z,82.62
2023-02-03T23:03:41.019Z,82.93
2023-02-03T23:05:43.012Z,83.67
2023-02-03T23:07:46.799Z,83.32
2023-02-03T23:09:48.773Z,83.20
2023-02-03T23:11:51.738Z,83.57
2023-02-03T23:13:55.695Z,83.59
2023-02-03T23:15:57.811Z,84.05
2023-02-03T23:17:59.801Z,83.13
2023-02-03T23:20:01.872Z,82.68
2023-02-03T23:22:03.904Z,83.68
2023-02-03T23:24:07.426Z,83.74
2023-02-03T23:26:09.423Z,83.66
2023-02-03T23:28:11.423Z,83.84
2023-02-03T23:30:14.566Z,83.69
2023-02-03T23:32:16.514Z,83.57
2023-02-03T23:34:37.233Z,83.32
2023-02-03T23:36:39.250Z,83.04
2023-02-03T23:38:41.164Z,82.40
2023-02-03T23:40:43.479Z,82.65
2023-02-03T23:42:45.560Z,82.47
2023-02-03T23:44:48.445Z,82.87
2023-02-03T23:46:50.747Z,82.76
2023-02-03T23:48:52.880Z,83.18
2023-02-03T23:50:54.844Z,83.06
2023-02-03T23:52:56.739Z,83.13
2023-02-03T23:54:58.638Z,83.01
2023-02-03T23:57:00.535Z,83.07
2023-02-03T23:59:02.482Z,82.99
